createdAt,value
2023-05-12T00:03:38.853Z,20.77
2023-05-12T00:08:46.042Z,20.77
2023-05-12T00:13:53.176Z,20.76
2023-05-12T00:19:00.356Z,20.77
2023-05-12T00:24:07.632Z,20.75
2023-05-12T00:29:14.803Z,20.70
2023-05-12T00:34:22.049Z,20.72
2023-05-12T00:39:29.309Z,20.70
2023-05-12T00:44:36.461Z,20.71
2023-05-12T00:49:43.654Z,20.69
2023-05-12T00:54:50.851Z,20.69
2023-05-12T00:59:58.026Z,20.65
2023-05-12T01:05:05.203Z,20.63
2023-05-12T01:10:12.440Z,20.64
2023-05-12T01:15:19.681Z,20.62
2023-05-12T01:20:26.930Z,20.66
2023-05-12T01:25:34.179Z,20.64
2023-05-12T01:30:41.335Z,20.63
2023-05-12T01:35:48.605Z,20.63
2023-05-12T01:40:55.791Z,20.63
2023-05-12T01:46:03.000Z,20.62
2023-05-12T01:51:10.127Z,20.61
2023-05-12T01:56:17.477Z,20.62
2023-05-12T02:01:24.830Z,20.61
2023-05-12T02:06:31.878Z,20.59
2023-05-12T02:11:39.150Z,20.59
2023-05-12T02:16:46.283Z,20.58
2023-05-12T02:21:54.351Z,20.58
2023-05-12T02:27:01.628Z,20.59
2023-05-12T02:32:08.980Z,20.55
2023-05-12T02:37:16.017Z,20.55
2023-05-12T02:42:23.428Z,20.51
2023-05-12T02:47:30.479Z,20.50
2023-05-12T02:52:37.679Z,20.51
2023-05-12T02:57:44.904Z,20.51
2023-05-12T03:02:52.589Z,20.49
2023-05-12T03:07:59.728Z,20.49
2023-05-12T03:13:07.309Z,20.48
2023-05-12T03:18:14.687Z,20.48
2023-05-12T03:23:21.896Z,20.48
2023-05-12T03:28:29.169Z,20.46
2023-05-12T03:33:36.400Z,20.49
2023-05-12T03:38:43.644Z,20.44
2023-05-12T03:43:51.039Z,20.45
2023-05-12T03:48:58.127Z,20.45
2023-05-12T03:54:05.351Z,20.43
2023-05-12T03:59:12.606Z,20.43
2023-05-12T04:04:19.895Z,20.44
2023-05-12T04:09:27.040Z,20.41
2023-05-12T04:14:42.393Z,20.42
2023-05-12T04:19:41.419Z,20.41
2023-05-12T04:24:48.603Z,20.41
2023-05-12T04:29:55.822Z,20.37
2023-05-12T04:35:03.001Z,20.40
2023-05-12T04:40:10.165Z,20.37
2023-05-12T04:45:17.410Z,20.34
2023-05-12T04:50:24.536Z,20.41
2023-05-12T04:55:31.951Z,20.42
2023-05-12T05:00:39.191Z,20.40
2023-05-12T05:05:46.380Z,20.43
2023-05-12T05:10:53.555Z,20.42
2023-05-12T05:16:01.959Z,20.43
2023-05-12T05:21:09.049Z,20.41
2023-05-12T05:26:16.217Z,20.45
2023-05-12T05:31:23.492Z,20.45
2023-05-12T05:36:31.702Z,20.44
2023-05-12T05:41:37.788Z,20.46
2023-05-12T05:46:45.015Z,20.50
2023-05-12T05:51:52.173Z,20.51
2023-05-12T05:56:59.451Z,20.56
2023-05-12T06:02:06.731Z,20.56
2023-05-12T06:07:13.828Z,20.58
2023-05-12T06:12:21.015Z,20.60
2023-05-12T06:17:28.737Z,20.63
2023-05-12T06:22:35.400Z,20.65
2023-05-12T06:27:42.563Z,20.65
2023-05-12T06:32:49.962Z,20.66
2023-05-12T06:37:57.150Z,20.66
2023-05-12T06:43:04.544Z,20.71
2023-05-12T06:48:11.777Z,20.63
2023-05-12T06:53:19.885Z,20.68
2023-05-12T06:58:27.124Z,20.74
2023-05-12T07:03:34.428Z,20.74
2023-05-12T07:08:41.544Z,20.74
2023-05-12T07:13:48.935Z,20.74
2023-05-12T07:18:56.247Z,20.73
2023-05-12T07:24:03.301Z,20.70
2023-05-12T07:29:12.770Z,20.76
2023-05-12T07:34:17.898Z,20.75
2023-05-12T07:39:25.117Z,20.83
2023-05-12T07:44:32.366Z,20.81
2023-05-12T07:49:39.641Z,20.86
2023-05-12T07:54:46.831Z,20.79
2023-05-12T07:59:53.966Z,20.83
2023-05-12T08:05:01.406Z,20.81
2023-05-12T08:10:08.385Z,20.85
2023-05-12T08:15:15.627Z,20.86
2023-05-12T08:20:23.193Z,20.84
2023-05-12T08:25:30.008Z,20.89
2023-05-12T08:30:37.225Z,20.85
2023-05-12T08:35:44.477Z,20.81
2023-05-12T08:40:51.563Z,20.83
2023-05-12T08:45:58.771Z,20.86
2023-05-12T08:51:06.318Z,20.86
2023-05-12T09:01:21.014Z,20.85
2023-05-12T09:06:28.404Z,20.94
2023-05-12T09:11:35.356Z,20.66
2023-05-12T09:16:42.794Z,20.69
2023-05-12T09:21:49.954Z,20.81
2023-05-12T09:26:57.123Z,20.73
2023-05-12T09:32:04.383Z,20.64
2023-05-12T09:37:13.235Z,20.45
2023-05-12T09:42:18.700Z,20.50
2023-05-12T09:47:25.926Z,20.70
2023-05-12T09:52:33.214Z,20.57
2023-05-12T09:57:40.237Z,20.40
2023-05-12T10:02:47.689Z,20.44
2023-05-12T10:07:59.223Z,20.25
2023-05-12T10:13:06.624Z,20.46
2023-05-12T10:18:14.959Z,20.28
2023-05-12T10:23:22.237Z,20.31
2023-05-12T10:28:29.267Z,20.46
2023-05-12T10:33:36.475Z,20.47
2023-05-12T10:38:43.698Z,20.47
2023-05-12T10:43:50.816Z,20.63
2023-05-12T10:48:58.033Z,20.63
2023-05-12T10:54:05.292Z,20.68
2023-05-12T10:59:12.871Z,20.77
2023-05-12T11:04:20.329Z,20.73
2023-05-12T11:09:27.336Z,20.74
2023-05-12T11:14:33.998Z,20.79
2023-05-12T11:19:41.231Z,20.89
2023-05-12T11:24:48.450Z,20.83
2023-05-12T11:29:55.627Z,20.83
2023-05-12T11:35:02.776Z,20.63
2023-05-12T11:40:10.065Z,20.78
2023-05-12T11:45:17.326Z,20.80
2023-05-12T11:50:24.480Z,20.69
2023-05-12T11:55:31.883Z,20.81
2023-05-12T12:00:39.014Z,20.84
2023-05-12T12:05:46.271Z,20.92
2023-05-12T12:10:53.556Z,20.95
2023-05-12T12:16:00.716Z,20.92
2023-05-12T12:21:07.867Z,20.96
2023-05-12T12:26:15.310Z,20.88
2023-05-12T12:31:22.348Z,20.95
2023-05-12T12:36:29.577Z,21.00
2023-05-12T12:41:36.959Z,21.05
2023-05-12T12:46:44.106Z,21.01
2023-05-12T12:51:51.361Z,21.00
2023-05-12T12:56:58.569Z,21.03
2023-05-12T13:02:05.817Z,21.05
2023-05-12T13:07:13.023Z,20.96
2023-05-12T13:12:20.273Z,21.01
2023-05-12T13:17:27.598Z,20.91
2023-05-12T13:22:34.698Z,20.94
2023-05-12T13:27:41.964Z,21.01
2023-05-12T13:32:49.181Z,21.01
2023-05-12T13:37:56.358Z,20.99
2023-05-12T13:43:03.658Z,20.96
2023-05-12T13:48:10.859Z,20.96
2023-05-12T13:53:17.996Z,21.04
2023-05-12T13:58:25.455Z,21.02
2023-05-12T14:03:32.477Z,20.99
2023-05-12T14:08:39.660Z,21.00
2023-05-12T14:13:46.950Z,20.98
2023-05-12T14:18:54.231Z,21.06
2023-05-12T14:24:01.317Z,21.01
2023-05-12T14:29:11.405Z,21.04
2023-05-12T14:34:18.550Z,20.96
2023-05-12T14:39:25.788Z,20.91
2023-05-12T14:44:33.016Z,20.93
2023-05-12T14:49:40.127Z,20.87
2023-05-12T14:54:47.326Z,20.95
2023-05-12T14:59:54.528Z,21.05
2023-05-12T15:05:01.781Z,21.07
2023-05-12T15:10:09.141Z,21.07
2023-05-12T15:15:16.510Z,21.21
2023-05-12T15:20:59.556Z,21.30
2023-05-12T15:28:11.155Z,21.33
2023-05-12T15:32:38.091Z,21.23
2023-05-12T15:38:47.996Z,21.31
2023-05-12T15:44:14.451Z,21.31
2023-05-12T15:49:57.062Z,21.33
2023-05-12T15:58:00.620Z,21.32
2023-05-12T16:04:27.036Z,21.36
2023-05-12T16:10:27.594Z,21.38
2023-05-12T16:15:52.099Z,21.38
2023-05-12T16:21:36.431Z,21.39
2023-05-12T16:26:53.810Z,21.21
2023-05-12T16:32:01.207Z,21.34
2023-05-12T16:37:08.826Z,21.35
2023-05-12T16:42:16.833Z,21.38
2023-05-12T16:47:28.167Z,21.44
2023-05-12T16:52:42.030Z,21.43
2023-05-12T16:59:01.240Z,21.46
2023-05-12T17:03:53.115Z,21.29
2023-05-12T17:09:00.620Z,21.40
2023-05-12T17:14:08.182Z,21.50
2023-05-12T17:19:16.137Z,21.63
2023-05-12T17:24:23.794Z,21.76
2023-05-12T17:29:31.455Z,21.81
2023-05-12T17:34:39.126Z,21.90
2023-05-12T17:39:46.808Z,21.95
2023-05-12T17:44:57.648Z,22.01
2023-05-12T17:50:08.809Z,22.10
2023-05-12T17:55:13.808Z,22.14
2023-05-12T18:00:21.807Z,22.20
2023-05-12T18:05:29.421Z,22.29
2023-05-12T18:10:37.255Z,22.33
2023-05-12T18:15:44.980Z,22.38
2023-05-12T18:20:53.268Z,22.42
2023-05-12T18:26:01.104Z,22.47
2023-05-12T18:31:16.001Z,22.51
2023-05-12T18:36:16.529Z,22.56
2023-05-12T18:41:24.146Z,22.61
2023-05-12T18:46:32.214Z,22.64
2023-05-12T18:51:40.107Z,22.68
2023-05-12T18:56:47.719Z,22.71
2023-05-12T19:01:55.585Z,22.72
2023-05-12T19:07:03.323Z,22.79
2023-05-12T19:12:11.270Z,22.81
2023-05-12T19:17:19.119Z,22.85
2023-05-12T19:22:27.007Z,22.96
2023-05-12T19:27:34.989Z,23.06
2023-05-12T19:32:42.850Z,23.16
2023-05-12T19:37:50.675Z,23.28
2023-05-12T19:42:58.758Z,23.38
2023-05-12T19:48:06.792Z,23.45
2023-05-12T19:53:50.179Z,23.54
2023-05-12T19:58:58.021Z,23.67
2023-05-12T20:04:06.054Z,23.81
2023-05-12T20:09:13.849Z,23.92
2023-05-12T20:14:21.665Z,23.96
2023-05-12T20:19:29.499Z,24.09
2023-05-12T20:24:37.407Z,24.16
2023-05-12T20:29:45.218Z,24.26
2023-05-12T20:34:53.419Z,24.30
2023-05-12T20:40:01.060Z,24.39
2023-05-12T20:45:08.806Z,24.43
2023-05-12T20:50:16.628Z,24.46
2023-05-12T20:55:24.205Z,24.55
2023-05-12T21:00:31.461Z,24.59
2023-05-12T21:05:39.043Z,24.71
2023-05-12T21:10:46.526Z,24.72
2023-05-12T21:15:53.937Z,24.77
2023-05-12T21:21:01.338Z,24.78
2023-05-12T21:26:08.581Z,24.84
2023-05-12T21:31:17.474Z,24.89
2023-05-12T21:36:25.462Z,24.89
2023-05-12T21:41:32.689Z,24.91
2023-05-12T21:46:42.098Z,24.90
2023-05-12T21:51:55.348Z,24.93
2023-05-12T21:57:02.781Z,25.01
2023-05-12T22:02:10.058Z,25.01
2023-05-12T22:07:18.350Z,25.00
2023-05-12T22:12:25.740Z,25.02
2023-05-12T22:17:37.018Z,24.97
2023-05-12T22:22:44.442Z,25.04
2023-05-12T22:27:51.640Z,25.07
2023-05-12T22:32:58.890Z,25.08
2023-05-12T22:38:06.159Z,25.14
2023-05-12T22:43:20.494Z,25.00
2023-05-12T22:49:08.815Z,24.97
2023-05-12T22:54:55.947Z,24.84
2023-05-12T23:00:26.165Z,24.74
2023-05-12T23:05:30.476Z,24.66
2023-05-12T23:11:25.327Z,24.49
2023-05-12T23:18:21.158Z,24.41
2023-05-12T23:23:23.039Z,24.29
2023-05-12T23:31:03.058Z,24.14
2023-05-12T23:42:42.436Z,23.97
2023-05-12T23:48:41.707Z,23.90
2023-05-12T23:56:45.717Z,23.80
